createdAt,value
2022-11-26T00:02:33.918Z,15.60
2022-11-26T00:13:01.778Z,11.10
2022-11-26T00:23:30.101Z,15.10
2022-11-26T00:33:57.696Z,17.20
2022-11-26T00:44:26.720Z,28.70
2022-11-26T00:54:54.211Z,25.00
2022-11-26T01:05:22.830Z,16.00
2022-11-26T01:26:21.755Z,12.80
2022-11-26T01:36:49.075Z,23.40
2022-11-26T01:47:25.576Z,23.80
2022-11-26T01:57:53.750Z,29.20
2022-11-26T02:08:21.577Z,32.30
2022-11-26T02:18:59.781Z,33.30
2022-11-26T02:29:31.985Z,29.10
2022-11-26T02:40:00.572Z,28.70
2022-11-26T02:50:32.104Z,34.60
2022-11-26T03:01:00.987Z,48.30
2022-11-26T03:11:29.527Z,35.30
2022-11-26T03:21:56.900Z,47.40
2022-11-26T03:32:24.238Z,30.90
2022-11-26T03:42:51.564Z,36.10
2022-11-26T03:53:18.858Z,27.70
2022-11-26T04:03:46.154Z,26.80
2022-11-26T04:14:13.572Z,34.40
2022-11-26T04:24:41.196Z,50.20
2022-11-26T04:35:10.303Z,55.00
2022-11-26T04:45:37.568Z,36.70
2022-11-26T04:56:05.041Z,27.20
2022-11-26T05:06:32.550Z,31.60
2022-11-26T05:16:59.832Z,31.40
2022-11-26T05:27:27.139Z,35.80
2022-11-26T05:37:54.473Z,32.60
2022-11-26T05:48:21.789Z,34.80
2022-11-26T05:58:49.073Z,35.20
2022-11-26T06:09:16.760Z,37.60
2022-11-26T06:19:44.180Z,35.90
2022-11-26T06:30:14.103Z,40.30
2022-11-26T06:40:41.349Z,53.00
2022-11-26T06:51:10.807Z,45.00
2022-11-26T07:01:38.194Z,63.20
2022-11-26T07:12:05.846Z,58.70
2022-11-26T07:22:33.147Z,49.10
2022-11-26T07:33:00.815Z,40.50
2022-11-26T07:43:28.073Z,38.50
2022-11-26T07:53:56.275Z,43.50
2022-11-26T08:04:23.554Z,43.40
2022-11-26T08:14:50.909Z,41.60
2022-11-26T08:25:18.842Z,37.60
2022-11-26T08:36:06.219Z,50.10
2022-11-26T08:46:33.898Z,54.60
2022-11-26T08:57:01.523Z,24.80
2022-11-26T09:07:28.998Z,26.80
2022-11-26T09:17:56.456Z,23.10
2022-11-26T09:28:23.851Z,24.10
2022-11-26T09:38:54.296Z,26.50
2022-11-26T09:49:23.003Z,21.80
2022-11-26T10:10:23.893Z,18.80
2022-11-26T10:21:05.905Z,18.70
2022-11-26T10:31:34.956Z,18.90
2022-11-26T10:42:12.395Z,18.70
2022-11-26T10:52:40.715Z,20.90
2022-11-26T11:03:28.741Z,20.40
2022-11-26T11:14:27.869Z,22.40
2022-11-26T11:25:02.620Z,19.00
2022-11-26T11:35:31.651Z,20.40
2022-11-26T11:46:24.284Z,19.60
2022-11-26T11:57:00.639Z,19.80
2022-11-26T12:07:36.166Z,17.70
2022-11-26T12:18:14.577Z,16.90
2022-11-26T12:28:51.631Z,17.00
2022-11-26T12:39:28.436Z,15.50
2022-11-26T12:50:14.032Z,16.90
2022-11-26T13:00:41.636Z,17.70
2022-11-26T13:11:23.525Z,19.20
2022-11-26T13:22:17.610Z,23.50
2022-11-26T13:33:25.495Z,21.10
2022-11-26T13:44:18.671Z,20.40
2022-11-26T13:54:52.597Z,19.50
2022-11-26T14:05:20.030Z,23.40
2022-11-26T14:16:02.495Z,21.90
2022-11-26T14:26:34.438Z,20.40
2022-11-26T14:37:03.215Z,18.00
2022-11-26T14:58:07.600Z,12.20
2022-11-26T15:08:36.375Z,11.80
2022-11-26T15:19:05.527Z,12.20
2022-11-26T15:29:35.525Z,14.80
2022-11-26T15:40:23.616Z,15.00
2022-11-26T15:50:54.516Z,14.90
2022-11-26T16:01:25.662Z,13.70
2022-11-26T16:12:01.354Z,12.60
2022-11-26T16:22:33.068Z,14.90
2022-11-26T16:33:00.326Z,14.00
2022-11-26T16:43:27.731Z,12.60
2022-11-26T16:53:55.035Z,13.70
2022-11-26T17:04:22.735Z,11.60
2022-11-26T17:14:50.222Z,12.20
2022-11-26T17:25:17.907Z,17.20
2022-11-26T17:35:45.216Z,17.70
2022-11-26T17:46:16.914Z,20.80
2022-11-26T17:56:44.230Z,18.30
2022-11-26T18:07:15.616Z,15.60
2022-11-26T18:17:48.224Z,17.40
2022-11-26T18:28:17.566Z,19.30
2022-11-26T18:38:44.957Z,21.90
2022-11-26T18:49:12.319Z,23.80
2022-11-26T18:59:40.539Z,20.20
2022-11-26T19:10:11.120Z,21.20
2022-11-26T19:20:38.601Z,19.90
2022-11-26T19:31:08.813Z,18.90
2022-11-26T19:41:36.436Z,24.80
2022-11-26T19:52:03.724Z,21.70
2022-11-26T20:02:31.103Z,23.60
2022-11-26T20:12:58.506Z,20.60
2022-11-26T20:23:25.818Z,22.40
2022-11-26T20:33:53.924Z,27.70
2022-11-26T20:44:23.246Z,25.20
2022-11-26T20:54:53.683Z,26.70
2022-11-26T21:05:23.232Z,26.10
2022-11-26T21:15:51.038Z,22.50
2022-11-26T21:26:21.290Z,22.30
2022-11-26T21:36:48.594Z,27.00
2022-11-26T21:47:17.489Z,27.60
2022-11-26T21:57:44.868Z,26.40
2022-11-26T22:08:12.258Z,25.90
2022-11-26T22:18:40.833Z,25.50
2022-11-26T22:29:08.690Z,23.20
2022-11-26T22:39:36.043Z,22.70
2022-11-26T22:50:04.026Z,19.30
2022-11-26T23:00:49.698Z,16.10
2022-11-26T23:11:19.737Z,18.70
2022-11-26T23:21:47.334Z,18.40
2022-11-26T23:32:14.580Z,16.10
2022-11-26T23:42:42.043Z,15.40
2022-11-26T23:53:09.972Z,19.00
